Terminal Aerodrome Forecast
Issued by NWS

Home | Current Version | Previous Version | Text Only | Print | Product List | Glossary On
Versions: 1 2 3 4 5 6 7 8 9 10 11 12 13 14 15 16 17 18 19 20 21 22 23 24 25 26
000
FTAK31 PAFA 310539
TAFAGA
TAF
PAGA 310539Z 3106/0106 30008KT P6SM -SHRA SCT020 BKN025 OVC035
     FM310800 29005KT P6SM VCSH SCT050 BKN080
     FM311300 27007KT P6SM SCT050 SCT100=

USA.gov is the U.S. government's official web portal to all federal, state and local government web resources and services.